Read Island, Canada
Current Conditions -  °F | °C
As of 9:00 AM on Monday 22 Dec 2014 (Local Time) from CYBL Reporting Station
Broken Clouds Broken Clouds  
Wind Chill: 30°   Ceiling: 24000
Heat Index: 30°   Visibility: 30mi
Dew Point: 30°   Wind: 0mph
Humidity: 100%   Direction: NA
Pressure: 30.32"   Gusts: NA
Location:  50.18°N, 125.09°W
Report Text: CYBL 221700Z 00000KT 30SM SCT070 BKN240 M01/M01 A3032 RMK AC3CI3 PRESRR SLP271
Loading
Personal Weather Stations






























Interactive Weather Map New forecast layout! Learn more

10-Day Weather Forecast

Advertisements
Track Severe Weather on mobile